Time;durP1;ratioP1;P1;durP2;ratioP2;P2;SDS_P1;SDS_P2;PMS_P1;PMS_P2;Temp;Humidity;BMP_temperature;BMP_pressure;BME280_temperature;BME280_humidity;BME280_pressure;Samples;Min_cycle;Max_cycle;Signal;HPM_P1;HPM_P2
2023/05/02 00:01:44;;;;;;;18.57;15.67;;;15.60;70.80;;;18.44;48.56;101565.31;5095566;28;20192;-64
2023/05/02 00:04:11;;;;;;;17.97;16.07;;;15.60;71.10;;;18.44;48.66;101567.16;5096266;28;20224;-62
2023/05/02 00:06:41;;;;;;;19.80;16.77;;;15.60;71.10;;;18.44;48.77;101564.50;5095445;28;20195;-64
2023/05/02 00:09:08;;;;;;;18.83;16.40;;;15.60;71.10;;;18.43;48.80;101563.69;5095330;28;20284;-63
2023/05/02 00:11:35;;;;;;;17.90;15.87;;;15.60;71.50;;;18.44;49.07;101562.66;5104080;28;20192;-61
2023/05/02 00:14:03;;;;;;;17.90;14.73;;;15.50;71.80;;;18.43;48.95;101569.00;5095037;28;20665;-64
2023/05/02 00:16:30;;;;;;;19.87;14.47;;;15.50;71.80;;;18.43;49.24;101561.00;5095551;28;20191;-62
2023/05/02 00:18:57;;;;;;;19.87;16.93;;;15.50;72.00;;;18.41;49.11;101560.41;5095400;28;20196;-62
2023/05/02 00:21:24;;;;;;;17.93;16.03;;;15.50;71.80;;;18.39;49.26;101557.13;5096416;28;20568;-62
2023/05/02 00:23:51;;;;;;;18.50;15.50;;;15.50;71.90;;;18.36;49.27;101557.53;5095052;28;20200;-63
2023/05/02 00:26:18;;;;;;;18.23;16.27;;;15.50;72.40;;;18.34;49.30;101564.09;5095240;28;20235;-65
2023/05/02 00:28:45;;;;;;;19.40;17.40;;;15.50;71.80;;;18.34;49.76;101564.91;5098378;28;20695;-61
2023/05/02 00:31:13;;;;;;;17.80;15.37;;;15.50;72.90;;;18.36;49.48;101567.34;5094637;28;20200;-61
2023/05/02 00:33:41;;;;;;;16.60;14.80;;;15.50;72.80;;;18.34;49.66;101567.56;5094562;28;20184;-65
2023/05/02 00:36:13;;;;;;;16.47;14.77;;;15.50;72.50;;;18.33;49.35;101563.25;5096147;28;20262;-62
2023/05/02 00:38:40;;;;;;;16.03;14.33;;;15.50;72.50;;;18.34;49.48;101569.41;5095056;28;20677;-62
2023/05/02 00:41:07;;;;;;;16.93;15.07;;;15.50;72.40;;;18.36;49.40;101567.34;5077498;28;20551;-62
2023/05/02 00:43:35;;;;;;;19.77;15.60;;;15.50;72.50;;;18.38;49.51;101566.13;5097650;28;20192;-62
2023/05/02 00:46:03;;;;;;;17.43;14.70;;;15.50;72.60;;;18.37;49.31;101569.84;5094521;28;20225;-64
2023/05/02 00:48:31;;;;;;;17.30;14.60;;;15.50;72.50;;;18.36;49.61;101572.69;5094761;28;20211;-64
2023/05/02 00:51:01;;;;;;;16.70;14.17;;;15.50;72.70;;;18.32;49.56;101566.97;5094434;28;20196;-63
2023/05/02 00:53:28;;;;;;;17.87;15.30;;;15.50;72.40;;;18.30;49.60;101562.88;5077530;28;20204;-63
2023/05/02 00:55:57;;;;;;;18.27;14.83;;;15.50;72.80;;;18.30;49.53;101576.19;5076664;28;20236;-62
2023/05/02 00:58:26;;;;;;;15.13;13.53;;;15.40;72.70;;;18.28;49.51;101568.38;5084960;28;20681;-63
2023/05/02 01:01:11;;;;;;;16.47;14.47;;;15.50;72.50;;;18.24;49.93;101575.16;5094581;28;20564;-63
2023/05/02 01:03:54;;;;;;;15.03;13.43;;;15.40;73.20;;;18.23;49.65;101568.19;5094227;28;20271;-63
2023/05/02 01:06:40;;;;;;;16.37;13.17;;;15.40;73.10;;;18.22;49.94;101566.53;5076154;28;20715;-63
2023/05/02 01:09:28;;;;;;;17.23;13.83;;;15.40;73.30;;;18.22;49.97;101572.69;5092855;28;20192;-63
2023/05/02 01:12:02;;;;;;;16.43;14.43;;;15.40;73.30;;;18.22;50.06;101571.88;5074181;28;20245;-61
2023/05/02 01:14:34;;;;;;;20.47;15.17;;;15.30;73.40;;;18.19;49.97;101575.75;5084594;28;20215;-63
2023/05/02 01:17:07;;;;;;;15.83;13.87;;;15.30;73.40;;;18.19;49.97;101573.09;5114494;28;20192;-63
2023/05/02 01:19:42;;;;;;;17.20;14.73;;;15.30;73.50;;;18.18;50.32;101575.97;5114764;28;20176;-63
2023/05/02 01:22:12;;;;;;;17.57;14.30;;;15.30;73.80;;;18.17;50.10;101577.81;5114639;28;20245;-63
2023/05/02 01:24:52;;;;;;;17.50;15.63;;;15.30;73.80;;;18.15;50.61;101581.72;5091458;28;20227;-61
2023/05/02 01:27:33;;;;;;;17.50;14.67;;;15.30;74.60;;;18.13;50.84;101578.44;5094107;28;20196;-62
2023/05/02 01:30:03;;;;;;;16.23;13.57;;;15.30;75.00;;;18.12;51.17;101576.78;5093948;28;20176;-60
2023/05/02 01:32:33;;;;;;;14.43;12.73;;;15.20;75.10;;;18.09;51.02;101583.31;5098919;28;20193;-63
2023/05/02 01:35:02;;;;;;;16.13;13.77;;;15.20;75.10;;;18.06;51.21;101582.94;5093787;28;20245;-62
2023/05/02 01:37:32;;;;;;;14.27;12.67;;;15.20;75.30;;;18.04;51.37;101587.66;5093803;28;20196;-62
2023/05/02 01:40:03;;;;;;;16.83;12.80;;;15.20;75.70;;;18.02;51.33;101595.00;5093826;28;20207;-63
2023/05/02 01:42:34;;;;;;;16.43;12.17;;;15.20;75.60;;;18.00;51.69;101595.22;5094966;28;20196;-63
2023/05/02 01:45:06;;;;;;;14.60;12.23;;;15.10;75.90;;;17.99;51.84;101598.09;5100518;28;20211;-62
2023/05/02 01:47:36;;;;;;;14.43;11.67;;;15.10;76.70;;;17.97;52.04;101605.47;5104019;28;20208;-62
2023/05/02 01:50:08;;;;;;;13.80;10.87;;;15.10;76.90;;;17.91;52.42;101609.75;5093911;28;20192;-63
2023/05/02 01:52:37;;;;;;;14.93;11.00;;;15.10;77.10;;;17.88;52.48;101606.63;5093785;28;20190;-63
2023/05/02 01:55:10;;;;;;;10.77;7.83;;;15.10;77.70;;;17.86;52.57;101614.00;5082574;28;20223;-61
2023/05/02 01:57:41;;;;;;;8.30;6.50;;;15.00;77.90;;;17.82;53.21;101602.13;5083737;28;20212;-63
2023/05/02 02:00:11;;;;;;;9.40;5.90;;;14.90;78.90;;;17.76;53.60;101618.94;5076241;28;20195;-61
2023/05/02 02:02:41;;;;;;;5.60;5.10;;;14.90;79.20;;;17.72;53.42;101621.16;5098474;28;20191;-64
2023/05/02 02:05:09;;;;;;;5.53;4.73;;;14.80;78.70;;;17.68;53.37;101637.72;5113515;28;20210;-66
2023/05/02 02:07:37;;;;;;;5.87;4.17;;;14.80;78.80;;;17.65;53.61;101638.13;5114153;28;20192;-65
2023/05/02 02:10:05;;;;;;;3.40;3.10;;;14.80;78.90;;;17.59;53.69;101635.22;5103565;28;20196;-63
2023/05/02 02:12:40;;;;;;;4.37;3.17;;;14.70;78.90;;;17.51;53.63;101638.06;5093846;28;20188;-62
2023/05/02 02:15:20;;;;;;;4.07;3.30;;;14.70;78.90;;;17.44;53.42;101642.50;5113027;28;20211;-63
2023/05/02 02:17:56;;;;;;;3.53;3.23;;;14.60;78.80;;;17.41;53.28;101642.91;5115727;28;20192;-62
2023/05/02 02:20:28;;;;;;;2.97;2.60;;;14.60;78.60;;;17.40;53.26;101641.25;5117705;28;20211;-60
2023/05/02 02:22:57;;;;;;;4.50;2.50;;;14.50;78.50;;;17.36;53.37;101645.31;5118097;28;20671;-61
2023/05/02 02:25:26;;;;;;;2.97;2.60;;;14.50;78.30;;;17.33;53.27;101651.03;5116961;28;20211;-63
2023/05/02 02:27:53;;;;;;;2.13;2.03;;;14.50;78.30;;;17.30;53.33;101656.75;5110700;28;20207;-63
2023/05/02 02:30:21;;;;;;;2.43;2.23;;;14.40;78.50;;;17.25;53.37;101658.34;5098451;28;20759;-63
2023/05/02 02:32:48;;;;;;;2.33;2.13;;;14.40;78.60;;;17.19;53.21;101664.44;5105119;28;20200;-63
2023/05/02 02:35:15;;;;;;;3.37;2.20;;;14.20;78.40;;;17.09;53.44;101675.44;5117072;28;20623;-62
2023/05/02 02:37:50;;;;;;;3.10;1.50;;;14.10;78.60;;;17.01;53.10;101678.25;5099328;28;20266;-60
2023/05/02 02:40:27;;;;;;;2.37;2.17;;;14.00;78.20;;;16.95;53.07;101679.00;5104953;28;20195;-63
2023/05/02 02:43:07;;;;;;;1.97;1.70;;;14.10;78.10;;;16.93;53.00;101684.53;5096878;28;20208;-61
2023/05/02 02:45:45;;;;;;;3.70;1.73;;;14.00;77.60;;;16.88;52.18;101692.25;5083266;28;20218;-61
2023/05/02 02:48:20;;;;;;;2.90;1.73;;;13.90;76.30;;;16.73;52.00;101706.66;5079955;28;20322;-60
2023/05/02 02:51:02;;;;;;;4.27;2.17;;;13.70;76.00;;;16.58;51.70;101703.22;5096976;28;20587;-63
2023/05/02 02:53:43;;;;;;;3.20;2.00;;;13.60;75.80;;;16.49;51.80;101712.31;5097252;28;20629;-64
2023/05/02 02:56:17;;;;;;;3.70;2.17;;;13.50;75.30;;;16.39;51.49;101714.44;5076793;28;20217;-61
2023/05/02 02:58:54;;;;;;;6.20;2.33;;;13.40;74.90;;;16.23;51.16;101726.97;5080545;28;20185;-61
2023/05/02 03:01:26;;;;;;;5.80;2.80;;;13.20;74.60;;;16.16;51.16;101731.34;5116912;28;20274;-62
2023/05/02 03:03:56;;;;;;;7.83;2.63;;;13.10;74.90;;;16.10;51.41;101728.63;5083343;28;20205;-62
2023/05/02 03:06:24;;;;;;;7.53;3.10;;;13.10;75.60;;;16.12;52.08;101734.56;5096389;28;20677;-62
2023/05/02 03:08:51;;;;;;;8.80;3.30;;;13.10;76.00;;;16.15;51.93;101744.84;5096099;28;20544;-64
2023/05/02 03:11:18;;;;;;;6.67;2.70;;;13.20;75.70;;;16.17;51.41;101742.81;5096340;28;20200;-63
2023/05/02 03:13:46;;;;;;;8.53;2.87;;;13.20;75.40;;;16.16;51.48;101747.28;5110013;28;20192;-64
2023/05/02 03:16:36;;;;;;;7.63;3.10;;;13.20;75.20;;;16.15;51.42;101755.47;5116661;28;20207;-61
2023/05/02 03:19:05;;;;;;;11.97;2.90;;;13.20;75.30;;;16.16;51.65;101751.81;5076152;28;20213;-63
2023/05/02 03:21:32;;;;;;;14.60;4.03;;;13.20;75.20;;;16.15;51.46;101761.59;5058240;28;20673;-62
2023/05/02 03:24:01;;;;;;;11.50;3.87;;;13.20;75.00;;;16.14;51.25;101770.56;5075200;28;20654;-64
2023/05/02 03:26:28;;;;;;;10.70;3.27;;;13.20;74.90;;;16.14;51.23;101775.88;5090350;28;20211;-65
2023/05/02 03:28:56;;;;;;;14.13;3.87;;;13.20;74.80;;;16.14;51.22;101781.19;5082986;28;20197;-62
2023/05/02 03:31:23;;;;;;;11.20;4.17;;;13.10;74.20;;;16.09;51.22;101782.78;5098743;28;20583;-64
2023/05/02 03:33:54;;;;;;;10.83;4.57;;;13.10;74.40;;;16.01;50.48;101796.97;5077597;28;20200;-62
2023/05/02 03:36:21;;;;;;;13.97;5.07;;;13.00;73.80;;;15.92;50.30;101791.94;5095706;28;20642;-61
2023/05/02 03:38:48;;;;;;;16.17;4.60;;;12.90;72.90;;;15.82;49.68;101802.00;5077932;28;20295;-63
2023/05/02 03:41:15;;;;;;;14.47;4.80;;;12.80;72.40;;;15.70;49.95;101812.25;5111096;28;20644;-62
2023/05/02 03:43:41;;;;;;;19.07;5.03;;;12.70;72.50;;;15.61;49.82;101820.47;5115909;28;20199;-64
2023/05/02 03:46:10;;;;;;;15.57;4.67;;;12.60;71.90;;;15.52;49.48;101817.09;5102508;28;20223;-63
2023/05/02 03:48:37;;;;;;;8.87;3.80;;;12.50;71.90;;;15.49;49.85;101822.75;5095532;28;20185;-62
2023/05/02 03:51:08;;;;;;;12.03;3.90;;;12.50;72.40;;;15.49;49.64;101822.75;5094208;28;20611;-61
2023/05/02 03:53:36;;;;;;;11.87;3.57;;;12.50;72.20;;;15.48;49.87;101831.69;5084445;28;20196;-61
2023/05/02 03:56:03;;;;;;;13.93;4.43;;;12.50;72.20;;;15.51;49.96;101836.66;5059946;28;20217;-63
2023/05/02 03:58:31;;;;;;;10.63;3.93;;;12.50;72.60;;;15.55;50.13;101836.09;5077097;28;20192;-63
2023/05/02 04:00:58;;;;;;;12.57;4.20;;;12.60;72.60;;;15.57;49.61;101842.06;5115220;28;20192;-63
2023/05/02 04:03:26;;;;;;;15.63;4.80;;;12.60;72.20;;;15.59;49.16;101841.91;5116408;28;20184;-62
2023/05/02 04:05:55;;;;;;;11.03;4.33;;;12.60;71.20;;;15.58;48.89;101849.03;5097481;28;20710;-62
2023/05/02 04:08:23;;;;;;;10.23;4.20;;;12.60;70.80;;;15.58;48.81;101854.34;5097122;28;20197;-63
2023/05/02 04:10:51;;;;;;;15.60;4.57;;;12.60;70.80;;;15.57;48.86;101855.31;5094929;28;20192;-61
2023/05/02 04:13:18;;;;;;;13.97;4.70;;;12.60;70.70;;;15.56;48.05;101860.81;5095243;28;20692;-63
2023/05/02 04:15:45;;;;;;;13.20;4.63;;;12.50;69.60;;;15.55;48.33;101869.78;5095152;28;20218;-64
2023/05/02 04:18:12;;;;;;;11.93;4.20;;;12.50;69.80;;;15.55;47.97;101870.59;5094098;28;20216;-64
2023/05/02 04:20:43;;;;;;;20.97;5.20;;;12.50;69.00;;;15.49;46.88;101878.47;5095425;28;20231;-63
2023/05/02 04:23:10;;;;;;;11.47;3.80;;;12.40;67.60;;;15.45;47.31;101874.53;5095537;28;20173;-63
2023/05/02 04:25:38;;;;;;;10.43;3.93;;;12.50;68.10;;;15.44;47.17;101880.78;5094413;28;20791;-64
2023/05/02 04:28:05;;;;;;;12.80;4.33;;;12.40;67.70;;;15.44;46.98;101888.75;5103120;28;20184;-63
2023/05/02 04:30:32;;;;;;;11.60;4.43;;;12.40;67.80;;;15.43;46.47;101892.41;5115296;28;20192;-64
2023/05/02 04:33:00;;;;;;;11.77;4.43;;;12.40;67.00;;;15.41;46.66;101889.09;5077978;28;20228;-61
2023/05/02 04:35:26;;;;;;;10.70;3.70;;;12.40;67.30;;;15.40;46.71;101895.44;5108315;28;20345;-62
2023/05/02 04:37:53;;;;;;;12.63;3.97;;;12.40;67.10;;;15.40;46.86;101898.88;5094635;28;20196;-61
2023/05/02 04:40:20;;;;;;;16.57;4.67;;;12.40;67.30;;;15.45;46.97;101901.06;5099966;28;20193;-64
2023/05/02 04:42:49;;;;;;;13.67;4.13;;;12.40;67.60;;;15.52;46.89;101907.31;5095622;28;20218;-62
2023/05/02 04:45:16;;;;;;;12.90;4.20;;;12.50;67.20;;;15.57;46.75;101911.06;5076459;28;20240;-63
2023/05/02 04:47:43;;;;;;;14.53;4.63;;;12.50;67.40;;;15.64;46.30;101916.50;5102032;28;20226;-63
2023/05/02 04:50:10;;;;;;;13.70;4.73;;;12.60;67.00;;;15.66;45.67;101925.09;5096599;28;20260;-64
2023/05/02 04:52:37;;;;;;;9.17;3.90;;;12.60;65.80;;;15.63;45.90;101930.75;5113391;28;20183;-65
2023/05/02 04:55:05;;;;;;;10.37;3.47;;;12.60;66.10;;;15.64;45.92;101927.13;5083321;28;20221;-63
2023/05/02 04:57:32;;;;;;;8.50;4.20;;;12.60;66.40;;;15.70;45.98;101941.50;5073695;28;20193;-63
2023/05/02 05:00:01;;;;;;;15.50;6.07;;;12.70;66.20;;;15.73;45.41;101941.13;5073897;28;20221;-64
2023/05/02 05:02:29;;;;;;;18.67;4.13;;;12.70;65.70;;;15.72;45.18;101950.94;5091332;28;20207;-64
2023/05/02 05:04:57;;;;;;;10.50;4.27;;;12.60;65.20;;;15.66;45.22;101951.66;5113978;28;20276;-62
2023/05/02 05:07:24;;;;;;;11.13;3.87;;;12.60;65.50;;;15.66;45.76;101959.63;5108232;28;20208;-62
2023/05/02 05:09:51;;;;;;;11.13;3.93;;;12.70;66.20;;;15.72;45.89;101971.31;5094268;28;20197;-63
2023/05/02 05:12:19;;;;;;;16.40;5.97;;;12.70;66.10;;;15.77;45.37;101959.19;5094366;28;20199;-61
2023/05/02 05:14:46;;;;;;;8.60;3.53;;;12.70;65.30;;;15.80;45.00;101963.31;5075793;28;20581;-64
2023/05/02 05:17:14;;;;;;;15.63;4.53;;;12.70;64.60;;;15.76;44.47;101978.75;5093903;28;20184;-63
2023/05/02 05:19:41;;;;;;;13.97;3.97;;;12.70;63.50;;;15.65;44.40;101984.50;5094059;28;20637;-64
2023/05/02 05:22:08;;;;;;;14.87;4.37;;;12.60;63.70;;;15.59;44.41;101982.56;5096425;28;20191;-63
2023/05/02 05:24:35;;;;;;;12.43;3.87;;;12.50;63.80;;;15.55;44.87;101987.38;5106946;28;20216;-65
2023/05/02 05:27:02;;;;;;;11.77;4.00;;;12.50;64.20;;;15.55;44.73;101991.84;5093278;28;20204;-62
2023/05/02 05:29:31;;;;;;;12.07;3.87;;;12.50;63.80;;;15.56;44.59;101998.81;5107611;28;20207;-66
2023/05/02 05:31:58;;;;;;;10.10;4.27;;;12.50;63.70;;;15.57;44.46;102001.28;5104457;28;20189;-63
2023/05/02 05:34:27;;;;;;;9.87;3.00;;;12.50;63.70;;;15.57;44.45;102003.94;5093540;28;20200;-62
2023/05/02 05:36:54;;;;;;;10.57;4.07;;;12.50;63.30;;;15.56;43.82;102004.97;5108745;28;20594;-63
2023/05/02 05:39:22;;;;;;;10.77;3.60;;;12.50;62.60;;;15.54;44.12;102016.75;5103969;28;20257;-64
2023/05/02 05:41:49;;;;;;;12.63;4.17;;;12.50;63.20;;;15.57;44.12;102014.56;5100257;28;20189;-64
2023/05/02 05:44:16;;;;;;;16.10;3.67;;;12.50;63.10;;;15.59;43.87;102025.81;5093804;28;20265;-64
2023/05/02 05:46:43;;;;;;;11.97;4.20;;;12.50;62.40;;;15.57;43.56;102027.00;5075774;28;20216;-62
2023/05/02 05:49:11;;;;;;;10.53;4.03;;;12.50;62.10;;;15.52;43.48;102037.34;5092693;28;20228;-65
2023/05/02 05:51:40;;;;;;;15.43;3.47;;;12.50;62.10;;;15.47;43.74;102043.19;5095063;28;20191;-63
2023/05/02 05:54:07;;;;;;;12.53;3.53;;;12.50;62.20;;;15.45;43.98;102050.47;5110374;28;20267;-63
2023/05/02 05:56:34;;;;;;;5.20;3.07;;;12.50;62.30;;;15.44;43.59;102054.13;5108847;28;20199;-62
2023/05/02 05:59:01;;;;;;;7.10;3.73;;;12.40;62.10;;;15.40;43.84;102058.06;5112983;28;20568;-63
2023/05/02 06:01:28;;;;;;;8.80;3.30;;;12.40;62.50;;;15.40;44.24;102058.06;5096177;28;20195;-65
2023/05/02 06:03:55;;;;;;;9.50;3.80;;;12.40;63.20;;;15.40;43.69;102067.88;5090602;28;20257;-62
2023/05/02 06:06:22;;;;;;;11.23;3.70;;;12.40;62.40;;;15.38;43.86;102070.69;5113564;28;20718;-64
2023/05/02 06:08:51;;;;;;;8.50;3.20;;;12.40;62.60;;;15.37;43.74;102070.88;5107073;28;20185;-66
2023/05/02 06:11:18;;;;;;;10.80;3.30;;;12.30;62.20;;;15.36;43.73;102071.88;5075599;28;20192;-65
2023/05/02 06:13:45;;;;;;;9.33;3.10;;;12.30;62.00;;;15.37;43.79;102079.66;5093606;28;20195;-64
2023/05/02 06:16:12;;;;;;;17.73;3.37;;;12.30;62.30;;;15.39;43.20;102082.13;5094430;28;20215;-64
2023/05/02 06:18:39;;;;;;;9.83;3.20;;;12.30;61.30;;;15.39;43.09;102082.97;5093464;28;20188;-64
2023/05/02 06:21:06;;;;;;;8.37;3.50;;;12.30;61.50;;;15.43;43.28;102086.09;5093462;28;20254;-64
2023/05/02 06:23:33;;;;;;;7.87;2.80;;;12.40;61.20;;;15.45;42.47;102086.81;5109107;28;20223;-64
2023/05/02 06:26:03;;;;;;;7.70;3.07;;;12.40;59.70;;;15.42;42.54;102095.91;5094479;28;20741;-64
2023/05/02 06:28:31;;;;;;;6.33;3.60;;;12.40;59.90;;;15.45;41.97;102106.19;5084002;28;20204;-63
2023/05/02 06:31:00;;;;;;;5.63;2.77;;;12.40;59.00;;;15.47;41.81;102114.00;5080684;28;20188;-61
2023/05/02 06:33:27;;;;;;;6.90;3.03;;;12.40;59.10;;;15.50;41.66;102110.97;5107233;28;20227;-66
2023/05/02 06:35:55;;;;;;;6.30;2.60;;;12.40;58.80;;;15.54;41.25;102107.81;5112885;28;20223;-64
2023/05/02 06:38:23;;;;;;;8.57;2.97;;;12.50;58.20;;;15.57;40.87;102122.53;5114069;28;20188;-63
2023/05/02 06:40:51;;;;;;;8.73;3.13;;;12.50;57.80;;;15.60;40.79;102122.22;5096242;28;20199;-65
2023/05/02 06:43:19;;;;;;;7.03;2.40;;;12.50;57.90;;;15.66;40.57;102132.16;5092616;28;20197;-60
2023/05/02 06:45:46;;;;;;;11.00;2.93;;;12.50;57.60;;;15.70;40.50;102133.44;5092769;28;20212;-62
2023/05/02 06:48:15;;;;;;;7.10;2.97;;;12.50;56.60;;;15.66;38.86;102132.16;5093484;28;20663;-62
2023/05/02 06:50:42;;;;;;;6.00;2.73;;;12.50;54.80;;;15.62;39.26;102136.13;5107691;28;20195;-61
2023/05/02 06:53:09;;;;;;;9.87;3.33;;;12.50;55.20;;;15.60;39.09;102146.09;5113789;28;20270;-63
2023/05/02 06:55:36;;;;;;;6.73;2.70;;;12.50;54.80;;;15.62;39.02;102140.63;5079598;28;20228;-65
2023/05/02 06:58:03;;;;;;;6.90;3.10;;;12.50;54.70;;;15.66;38.27;102147.25;5092975;28;20676;-62
2023/05/02 07:00:32;;;;;;;7.67;2.93;;;12.40;53.90;;;15.69;38.42;102146.91;5078436;28;20223;-67
2023/05/02 07:02:58;;;;;;;5.83;2.67;;;12.50;54.70;;;15.74;38.53;102150.69;5095062;28;20199;-63
2023/05/02 07:05:26;;;;;;;7.40;3.30;;;12.50;54.30;;;15.81;38.34;102156.94;5116840;28;20295;-64
2023/05/02 07:07:53;;;;;;;11.83;3.10;;;12.60;54.40;;;15.89;37.95;102154.25;5099254;28;20720;-65
2023/05/02 07:10:20;;;;;;;7.37;2.77;;;12.70;54.20;;;15.94;38.11;102162.53;5086557;28;20204;-65
2023/05/02 07:12:47;;;;;;;6.20;3.50;;;12.70;53.60;;;16.01;38.21;102163.50;5078522;28;20272;-64
2023/05/02 07:15:15;;;;;;;9.67;3.37;;;12.80;54.30;;;16.11;38.24;102174.72;5096264;28;20212;-61
2023/05/02 07:17:43;;;;;;;8.77;2.80;;;12.90;54.30;;;16.12;36.95;102176.38;5096409;28;20235;-65
2023/05/02 07:20:11;;;;;;;13.83;3.50;;;12.80;52.20;;;16.08;36.86;102188.34;5078785;28;20265;-64
2023/05/02 07:22:38;;;;;;;8.37;3.33;;;12.90;51.90;;;16.03;36.99;102182.72;5078495;28;20656;-65
2023/05/02 07:25:06;;;;;;;8.60;3.73;;;12.80;52.10;;;16.03;37.00;102188.03;5061451;28;20221;-60
2023/05/02 07:27:33;;;;;;;8.87;3.20;;;12.90;52.00;;;16.04;36.84;102197.69;5062037;28;20209;-65
2023/05/02 07:30:00;;;;;;;7.53;3.63;;;12.90;51.80;;;16.09;36.84;102194.50;5100776;28;20199;-64
2023/05/02 07:32:28;;;;;;;9.10;3.87;;;12.90;52.10;;;16.16;36.62;102198.91;5100611;28;20195;-63
2023/05/02 07:34:56;;;;;;;5.13;3.13;;;13.00;51.40;;;16.21;35.88;102201.06;5077356;28;20226;-64
2023/05/02 07:37:23;;;;;;;7.27;2.73;;;13.00;50.70;;;16.24;35.91;102216.63;5076679;28;20181;-63
2023/05/02 07:39:50;;;;;;;8.33;4.77;;;13.00;50.30;;;16.27;35.55;102209.16;5094073;28;20576;-62
2023/05/02 07:42:17;;;;;;;11.60;5.33;;;13.10;49.90;;;16.28;35.16;102218.78;5077564;28;20201;-64
2023/05/02 07:44:44;;;;;;;7.80;2.93;;;13.00;49.20;;;16.36;35.20;102219.72;5090189;28;20239;-63
2023/05/02 07:47:11;;;;;;;5.67;3.20;;;13.10;48.90;;;16.41;34.68;102223.53;5111305;28;20676;-62
2023/05/02 07:49:38;;;;;;;11.50;4.00;;;13.10;48.60;;;16.51;34.37;102223.28;5076015;28;20200;-65
2023/05/02 07:52:06;;;;;;;7.60;3.20;;;13.10;48.00;;;16.60;33.96;102219.59;5095416;28;20268;-64
2023/05/02 07:54:34;;;;;;;9.17;4.57;;;13.20;47.80;;;16.67;33.72;102217.88;5073012;28;20303;-62
2023/05/02 07:57:02;;;;;;;6.00;3.70;;;13.30;47.60;;;16.72;33.53;102227.00;5079707;28;20338;-65
2023/05/02 07:59:30;;;;;;;4.93;3.70;;;13.40;47.30;;;16.81;33.73;102225.09;5077962;28;20212;-62
2023/05/02 08:01:57;;;;;;;6.90;4.13;;;13.50;47.90;;;16.93;34.13;102227.16;5096307;28;20551;-63
2023/05/02 08:04:24;;;;;;;8.93;4.17;;;13.50;48.40;;;17.05;33.93;102234.69;5095250;28;20315;-62
2023/05/02 08:06:51;;;;;;;7.03;4.60;;;13.70;47.60;;;17.08;33.44;102227.19;5095118;28;20272;-63
2023/05/02 08:09:20;;;;;;;6.77;3.20;;;13.70;46.90;;;17.06;33.00;102234.53;5094355;28;20210;-60
2023/05/02 08:11:47;;;;;;;9.00;3.50;;;13.70;45.80;;;16.98;32.93;102234.59;5109070;28;20525;-63
2023/05/02 08:14:15;;;;;;;5.57;3.27;;;13.70;45.80;;;16.93;32.83;102239.63;5100363;28;20243;-63
2023/05/02 08:16:42;;;;;;;7.47;3.17;;;13.60;45.80;;;16.90;32.93;102240.00;5074941;28;20267;-61
2023/05/02 08:19:12;;;;;;;5.67;3.67;;;13.60;45.90;;;16.83;32.83;102249.66;5074427;28;20197;-62
2023/05/02 08:21:40;;;;;;;7.97;4.50;;;13.50;45.70;;;16.74;32.90;102254.22;5083617;28;20248;-62
2023/05/02 08:24:06;;;;;;;6.87;3.83;;;13.50;46.00;;;16.70;33.51;102255.59;5093868;28;20588;-62
2023/05/02 08:26:35;;;;;;;7.77;3.40;;;13.50;46.50;;;16.67;33.91;102266.56;5106776;28;20593;-62
2023/05/02 08:29:03;;;;;;;6.93;3.00;;;13.50;46.80;;;16.64;33.89;102266.91;5045936;28;20201;-61
2023/05/02 08:31:30;;;;;;;8.73;3.50;;;13.40;47.10;;;16.62;34.10;102260.13;5073952;28;20200;-64
2023/05/02 08:33:57;;;;;;;7.47;3.77;;;13.40;47.30;;;16.65;34.38;102257.94;5060376;28;20207;-61
2023/05/02 08:36:25;;;;;;;6.80;3.70;;;13.40;47.70;;;16.72;34.46;102263.38;5077045;28;20180;-62
2023/05/02 08:38:51;;;;;;;9.17;3.10;;;13.40;48.00;;;16.80;33.93;102279.28;5092269;28;20192;-63
2023/05/02 08:41:19;;;;;;;6.87;3.30;;;13.50;47.90;;;16.79;33.92;102278.47;5075280;28;20249;-60
2023/05/02 08:43:47;;;;;;;6.43;3.20;;;13.50;47.80;;;16.80;34.18;102281.94;5093644;28;20220;-61
2023/05/02 08:46:16;;;;;;;9.47;3.77;;;13.50;47.90;;;16.81;34.20;102283.59;5082636;28;20225;-62
2023/05/02 08:48:46;;;;;;;7.20;3.70;;;13.50;48.80;;;16.85;34.42;102279.59;5090097;28;20302;-61
2023/05/02 08:51:16;;;;;;;5.77;3.07;;;13.60;48.10;;;17.11;33.90;102279.22;5088471;28;20295;-60
2023/05/02 08:53:50;;;;;;;6.47;2.93;;;13.60;47.40;;;17.74;32.98;102286.78;5082972;28;20550;-60
2023/05/02 08:56:18;;;;;;;7.20;3.40;;;13.80;47.50;;;18.20;32.71;102288.22;5073903;28;20207;-65
2023/05/02 08:58:46;;;;;;;3.90;2.53;;;14.10;47.30;;;18.38;32.02;102287.81;5091078;28;20196;-61
2023/05/02 09:01:16;;;;;;;5.10;2.57;;;14.40;46.10;;;18.39;31.97;102284.16;5089988;28;20196;-63
2023/05/02 09:03:46;;;;;;;5.80;2.90;;;14.60;46.10;;;18.39;32.23;102292.16;5091134;28;20212;-61
2023/05/02 09:06:16;;;;;;;8.50;2.93;;;14.70;46.00;;;18.38;31.81;102301.16;5094528;28;20220;-60
2023/05/02 09:08:49;;;;;;;5.63;2.73;;;14.80;45.10;;;18.27;32.15;102297.97;5092758;28;20635;-62
2023/05/02 09:11:17;;;;;;;4.57;2.67;;;14.80;45.00;;;18.13;32.17;102298.81;5077119;28;20200;-62
2023/05/02 09:13:47;;;;;;;7.53;3.63;;;14.80;45.00;;;18.00;32.58;102300.47;5074052;28;20184;-63
2023/05/02 09:16:16;;;;;;;7.17;3.50;;;14.70;45.20;;;17.92;32.42;102296.09;5091578;28;20208;-61
2023/05/02 09:18:46;;;;;;;4.53;2.30;;;14.70;45.00;;;17.85;32.20;102302.31;5091713;28;20219;-63
2023/05/02 09:21:16;;;;;;;4.60;2.20;;;14.60;44.70;;;17.81;32.47;102315.16;5075718;28;20542;-59
2023/05/02 09:23:49;;;;;;;6.23;2.53;;;14.50;44.80;;;17.84;32.13;102313.97;5096119;28;20617;-61
2023/05/02 09:26:18;;;;;;;5.00;2.93;;;14.50;44.20;;;17.89;32.10;102304.44;5072774;28;20511;-62
2023/05/02 09:28:48;;;;;;;4.87;2.23;;;14.50;44.60;;;18.50;32.15;102311.19;5086146;28;20204;-61
2023/05/02 09:31:19;;;;;;;5.20;2.10;;;14.60;44.60;;;19.47;30.81;102307.00;5087214;28;20833;-62
2023/05/02 09:34:09;;;;;;;4.00;1.90;;;14.90;45.10;;;20.02;29.97;102300.75;5092450;28;20238;-61
2023/05/02 09:36:40;;;;;;;4.70;2.23;;;15.30;43.70;;;20.13;28.88;102301.03;5092760;28;20177;-60
2023/05/02 09:39:10;;;;;;;6.53;3.07;;;15.70;42.20;;;20.06;28.63;102304.72;5068570;28;20195;-60
2023/05/02 09:41:41;;;;;;;5.97;3.20;;;15.80;40.40;;;19.84;28.61;102309.31;5093146;28;20529;-59
2023/05/02 09:44:12;;;;;;;4.37;2.60;;;15.90;40.30;;;19.63;29.04;102314.75;5091901;28;20261;-60
2023/05/02 09:46:41;;;;;;;4.07;1.70;;;16.00;40.30;;;19.51;28.76;102317.13;5074138;28;20238;-60
2023/05/02 09:49:09;;;;;;;3.20;1.80;;;15.90;39.80;;;20.61;28.52;102317.09;5094246;28;20204;-60
2023/05/02 09:51:36;;;;;;;3.80;2.37;;;16.00;40.70;;;22.10;26.61;102310.09;5077272;28;20188;-62
2023/05/02 09:54:03;;;;;;;4.87;2.03;;;16.50;40.30;;;22.51;25.52;102320.44;5090891;28;20318;-62
2023/05/02 09:56:31;;;;;;;3.57;2.20;;;16.90;38.50;;;22.25;25.37;102325.91;5073103;28;20215;-60
2023/05/02 09:59:15;;;;;;;6.93;3.60;;;17.10;37.70;;;21.68;26.16;102326.66;5092013;28;20204;-62
2023/05/02 10:01:42;;;;;;;7.37;2.30;;;17.20;37.80;;;21.23;26.87;102335.53;5093117;28;20287;-63
2023/05/02 10:04:17;;;;;;;4.57;1.73;;;17.20;38.00;;;20.80;27.10;102324.38;5099925;28;20241;-62
2023/05/02 10:06:47;;;;;;;3.53;1.73;;;17.00;36.90;;;20.46;27.22;102343.19;5090380;28;20314;-65
2023/05/02 10:09:14;;;;;;;2.23;1.90;;;16.80;37.30;;;20.37;27.20;102339.03;5092697;28;20251;-61
2023/05/02 10:11:52;;;;;;;4.60;1.93;;;16.70;37.70;;;20.36;27.30;102335.53;5111518;28;20183;-61
2023/05/02 10:14:23;;;;;;;8.77;4.23;;;16.70;37.90;;;20.32;27.55;102342.31;5112473;28;20218;-61
2023/05/02 10:17:00;;;;;;;4.63;2.43;;;16.70;38.10;;;20.19;28.17;102344.88;5090430;28;21285;-63